Date,TemperatureHighF,TemperatureAvgF,TemperatureLowF,DewpointHighF,DewpointAvgF,DewpointLowF,HumidityHigh,HumidityAvg,HumidityLow,PressureMaxIn,PressureMinIn,WindSpeedMaxMPH,WindSpeedAvgMPH,GustSpeedMaxMPH,PrecipitationSumIn
2013-11-1,64.4,53.8,44.2,57.0,49.7,42.6,98,87,70,30.18,29.91,9,2,14,0.00
2013-11-2,59.4,52.7,46.4,51.8,46.9,41.5,93,81,57,30.18,29.85,16,4,26,0.21
2013-11-3,57.6,48.4,42.4,50.4,43.7,40.1,93,84,69,30.21,30.12,6,2,8,0.08
2013-11-4,53.2,48.6,42.4,49.5,45.5,39.5,93,89,80,30.15,30.09,9,4,13,0.08
2013-11-5,59.4,54.7,51.3,56.5,52.8,49.3,96,93,88,30.21,30.06,12,5,21,0.33
2013-11-6,63.3,57.3,55.2,60.0,55.3,53.7,96,93,87,30.27,30.09,8,2,10,0.00
2013-11-7,57.6,53.7,46.6,54.5,51.7,45.2,95,93,88,30.18,29.97,17,4,30,0.59
2013-11-8,58.3,49.9,42.1,52.0,46.2,39.6,97,88,67,30.18,30.03,10,3,13,0.00
2013-11-9,62.4,49.9,40.6,50.1,45.0,38.2,95,84,62,30.06,29.94,6,1,8,0.00
2013-11-10,63.5,52.3,46.4,52.8,47.3,43.3,93,84,67,30.03,29.91,7,2,10,0.00
2013-11-11,65.8,55.0,47.5,55.3,49.8,46.1,95,84,67,30.06,29.88,9,3,12,0.00
2013-11-12,62.2,55.9,51.8,58.3,53.1,50.0,95,90,82,30.42,29.97,10,2,15,0.12
2013-11-13,58.5,50.7,44.1,53.5,48.3,43.0,96,92,81,30.42,30.21,11,3,14,0.00
2013-11-14,54.5,47.5,39.7,49.8,44.9,38.4,96,91,76,30.24,30.06,5,1,6,0.04
2013-11-15,55.4,48.7,43.7,49.8,45.4,42.4,97,89,75,30.09,29.74,12,3,17,0.13
2013-11-16,58.5,51.8,48.0,52.1,47.5,44.5,96,86,71,29.91,29.71,8,3,15,0.12
2013-11-17,59.2,51.4,47.8,51.1,46.2,42.2,93,83,69,30.03,29.88,13,4,18,0.04
2013-11-18,55.2,52.0,48.7,53.5,47.6,43.5,94,85,74,29.97,29.74,19,6,31,0.67
2013-11-19,56.1,49.7,43.3,54.7,50.1,29.1,95,90,55,29.94,29.74,20,10,32,0.45
2013-11-20,49.5,42.3,36.5,33.3,30.0,25.5,72,62,52,30.18,29.94,12,6,17,0.00
2013-11-21,51.1,39.2,28.9,28.6,23.8,20.5,76,55,39,30.36,30.18,8,3,12,0.00
2013-11-22,58.3,44.2,34.2,33.8,24.9,18.5,55,47,36,30.36,30.12,10,3,13,0.00
2013-11-23,66.6,49.7,38.3,39.2,28.5,21.3,51,44,34,30.15,29.88,10,3,12,0.00
2013-11-24,62.1,47.3,38.8,40.0,30.7,23.5,66,53,41,30.15,29.97,8,3,11,0.00
2013-11-25,58.5,44.9,36.5,42.9,35.1,28.3,83,69,51,30.21,30.12,8,2,10,0.00
2013-11-26,61.0,48.2,38.7,46.7,39.2,33.0,82,72,54,30.18,29.94,9,2,13,0.00
2013-11-27,61.2,48.5,41.2,45.1,38.6,34.5,78,69,48,29.94,29.77,7,2,10,0.00
2013-11-28,59.4,47.4,39.2,45.7,39.3,34.5,84,74,58,30.09,29.88,7,2,11,0.00
2013-11-29,54.0,44.8,35.4,47.1,40.0,31.5,91,83,70,30.27,30.09,11,3,15,0.00
2013-11-30,54.5,47.6,39.9,48.0,43.8,37.5,94,87,75,30.33,30.21,7,2,9,0.00